sensor_id;sensor_type;location;lat;lon;timestamp;P1;durP1;ratioP1;P2;durP2;ratioP2
70369;SDS011;57790;51.356;-2.906;2023-06-22T00:02:12;5.27;;;1.80;;
70369;SDS011;57790;51.356;-2.906;2023-06-22T00:05:12;5.72;;;1.90;;
70369;SDS011;57790;51.356;-2.906;2023-06-22T00:08:12;6.83;;;2.07;;
70369;SDS011;57790;51.356;-2.906;2023-06-22T00:11:13;6.50;;;1.90;;
70369;SDS011;57790;51.356;-2.906;2023-06-22T00:14:14;4.57;;;1.87;;
70369;SDS011;57790;51.356;-2.906;2023-06-22T00:17:14;5.43;;;2.17;;
70369;SDS011;57790;51.356;-2.906;2023-06-22T00:20:14;4.77;;;1.80;;
70369;SDS011;57790;51.356;-2.906;2023-06-22T00:23:16;6.05;;;1.85;;
70369;SDS011;57790;51.356;-2.906;2023-06-22T00:26:17;5.33;;;1.70;;
70369;SDS011;57790;51.356;-2.906;2023-06-22T00:29:18;5.28;;;1.70;;
70369;SDS011;57790;51.356;-2.906;2023-06-22T00:32:18;4.43;;;1.63;;
70369;SDS011;57790;51.356;-2.906;2023-06-22T00:35:19;5.77;;;1.93;;
70369;SDS011;57790;51.356;-2.906;2023-06-22T00:38:19;6.13;;;2.03;;
70369;SDS011;57790;51.356;-2.906;2023-06-22T00:41:20;5.50;;;1.73;;
70369;SDS011;57790;51.356;-2.906;2023-06-22T00:44:21;5.17;;;1.70;;
70369;SDS011;57790;51.356;-2.906;2023-06-22T00:47:21;5.00;;;1.70;;
70369;SDS011;57790;51.356;-2.906;2023-06-22T00:50:23;5.60;;;1.80;;
70369;SDS011;57790;51.356;-2.906;2023-06-22T00:53:25;5.35;;;1.75;;
70369;SDS011;57790;51.356;-2.906;2023-06-22T00:56:26;5.83;;;1.90;;
70369;SDS011;57790;51.356;-2.906;2023-06-22T00:59:29;5.10;;;1.83;;
70369;SDS011;57790;51.356;-2.906;2023-06-22T01:02:32;5.63;;;2.08;;
70369;SDS011;57790;51.356;-2.906;2023-06-22T01:05:32;5.03;;;1.70;;
70369;SDS011;57790;51.356;-2.906;2023-06-22T01:08:36;5.13;;;1.80;;
70369;SDS011;57790;51.356;-2.906;2023-06-22T01:11:50;5.30;;;1.83;;
70369;SDS011;57790;51.356;-2.906;2023-06-22T01:15:04;5.82;;;2.10;;
70369;SDS011;57790;51.356;-2.906;2023-06-22T01:18:08;5.50;;;1.80;;
70369;SDS011;57790;51.356;-2.906;2023-06-22T01:21:12;6.03;;;1.80;;
70369;SDS011;57790;51.356;-2.906;2023-06-22T01:24:24;5.53;;;1.92;;
70369;SDS011;57790;51.356;-2.906;2023-06-22T01:27:39;5.30;;;1.80;;
70369;SDS011;57790;51.356;-2.906;2023-06-22T01:30:48;6.32;;;1.80;;
70369;SDS011;57790;51.356;-2.906;2023-06-22T01:33:57;6.97;;;1.80;;
70369;SDS011;57790;51.356;-2.906;2023-06-22T01:36:59;5.53;;;2.10;;
70369;SDS011;57790;51.356;-2.906;2023-06-22T01:40:02;5.78;;;1.90;;
70369;SDS011;57790;51.356;-2.906;2023-06-22T01:43:06;7.28;;;1.95;;
70369;SDS011;57790;51.356;-2.906;2023-06-22T01:46:06;6.13;;;1.87;;
70369;SDS011;57790;51.356;-2.906;2023-06-22T01:49:08;4.85;;;1.75;;
70369;SDS011;57790;51.356;-2.906;2023-06-22T01:52:09;5.43;;;2.05;;
70369;SDS011;57790;51.356;-2.906;2023-06-22T01:55:09;5.93;;;1.90;;
70369;SDS011;57790;51.356;-2.906;2023-06-22T01:58:09;5.17;;;1.77;;
70369;SDS011;57790;51.356;-2.906;2023-06-22T02:01:10;6.20;;;1.70;;
70369;SDS011;57790;51.356;-2.906;2023-06-22T02:04:56;6.75;;;1.90;;
70369;SDS011;57790;51.356;-2.906;2023-06-22T02:08:02;5.43;;;1.90;;
70369;SDS011;57790;51.356;-2.906;2023-06-22T02:11:16;6.88;;;2.10;;
70369;SDS011;57790;51.356;-2.906;2023-06-22T02:14:23;5.43;;;1.87;;
70369;SDS011;57790;51.356;-2.906;2023-06-22T02:17:24;6.50;;;1.90;;
70369;SDS011;57790;51.356;-2.906;2023-06-22T02:20:26;6.32;;;2.10;;
70369;SDS011;57790;51.356;-2.906;2023-06-22T02:23:26;5.53;;;1.63;;
70369;SDS011;57790;51.356;-2.906;2023-06-22T02:26:27;5.95;;;1.80;;
70369;SDS011;57790;51.356;-2.906;2023-06-22T02:29:28;4.43;;;1.60;;
70369;SDS011;57790;51.356;-2.906;2023-06-22T02:32:29;5.85;;;1.90;;
70369;SDS011;57790;51.356;-2.906;2023-06-22T02:35:29;6.73;;;2.10;;
70369;SDS011;57790;51.356;-2.906;2023-06-22T02:38:31;7.07;;;1.95;;
70369;SDS011;57790;51.356;-2.906;2023-06-22T02:41:36;5.70;;;1.75;;
70369;SDS011;57790;51.356;-2.906;2023-06-22T02:44:36;6.53;;;1.97;;
70369;SDS011;57790;51.356;-2.906;2023-06-22T02:47:37;5.07;;;1.80;;
70369;SDS011;57790;51.356;-2.906;2023-06-22T02:50:38;5.70;;;2.10;;
70369;SDS011;57790;51.356;-2.906;2023-06-22T02:53:38;5.60;;;1.70;;
70369;SDS011;57790;51.356;-2.906;2023-06-22T02:56:38;5.73;;;1.93;;
70369;SDS011;57790;51.356;-2.906;2023-06-22T02:59:40;5.65;;;1.90;;
70369;SDS011;57790;51.356;-2.906;2023-06-22T03:02:42;6.95;;;2.13;;
70369;SDS011;57790;51.356;-2.906;2023-06-22T03:05:46;5.75;;;1.92;;
70369;SDS011;57790;51.356;-2.906;2023-06-22T03:08:46;6.13;;;2.00;;
70369;SDS011;57790;51.356;-2.906;2023-06-22T03:11:50;5.27;;;2.00;;
70369;SDS011;57790;51.356;-2.906;2023-06-22T03:14:50;4.90;;;1.65;;
70369;SDS011;57790;51.356;-2.906;2023-06-22T03:17:51;5.47;;;1.83;;
70369;SDS011;57790;51.356;-2.906;2023-06-22T03:20:51;5.40;;;1.90;;
70369;SDS011;57790;51.356;-2.906;2023-06-22T03:23:52;5.33;;;2.07;;
70369;SDS011;57790;51.356;-2.906;2023-06-22T03:26:52;6.07;;;2.17;;
70369;SDS011;57790;51.356;-2.906;2023-06-22T03:29:52;7.50;;;2.30;;
70369;SDS011;57790;51.356;-2.906;2023-06-22T03:32:53;5.63;;;1.90;;
70369;SDS011;57790;51.356;-2.906;2023-06-22T03:35:53;6.55;;;2.17;;
70369;SDS011;57790;51.356;-2.906;2023-06-22T03:38:54;5.77;;;2.10;;
70369;SDS011;57790;51.356;-2.906;2023-06-22T03:41:54;5.90;;;2.13;;
70369;SDS011;57790;51.356;-2.906;2023-06-22T03:44:55;6.57;;;2.30;;
70369;SDS011;57790;51.356;-2.906;2023-06-22T03:47:55;6.28;;;2.20;;
70369;SDS011;57790;51.356;-2.906;2023-06-22T03:50:55;6.40;;;2.20;;
70369;SDS011;57790;51.356;-2.906;2023-06-22T03:53:56;6.47;;;2.17;;
70369;SDS011;57790;51.356;-2.906;2023-06-22T03:56:57;6.07;;;2.00;;
70369;SDS011;57790;51.356;-2.906;2023-06-22T03:59:58;6.32;;;2.30;;
70369;SDS011;57790;51.356;-2.906;2023-06-22T04:02:59;5.97;;;2.28;;
70369;SDS011;57790;51.356;-2.906;2023-06-22T04:05:59;6.90;;;2.43;;
70369;SDS011;57790;51.356;-2.906;2023-06-22T04:09:00;5.90;;;2.30;;
70369;SDS011;57790;51.356;-2.906;2023-06-22T04:12:01;7.10;;;2.20;;
70369;SDS011;57790;51.356;-2.906;2023-06-22T04:15:04;7.00;;;2.20;;
70369;SDS011;57790;51.356;-2.906;2023-06-22T04:18:05;7.35;;;2.45;;
70369;SDS011;57790;51.356;-2.906;2023-06-22T04:21:05;6.80;;;2.20;;
70369;SDS011;57790;51.356;-2.906;2023-06-22T04:24:06;7.47;;;2.47;;
70369;SDS011;57790;51.356;-2.906;2023-06-22T04:27:06;7.30;;;2.80;;
70369;SDS011;57790;51.356;-2.906;2023-06-22T04:30:07;6.40;;;2.38;;
70369;SDS011;57790;51.356;-2.906;2023-06-22T04:33:08;6.93;;;2.53;;
70369;SDS011;57790;51.356;-2.906;2023-06-22T04:36:09;7.50;;;2.72;;
70369;SDS011;57790;51.356;-2.906;2023-06-22T04:39:13;7.95;;;2.60;;
70369;SDS011;57790;51.356;-2.906;2023-06-22T04:42:15;7.60;;;2.55;;
70369;SDS011;57790;51.356;-2.906;2023-06-22T04:45:15;7.70;;;2.63;;
70369;SDS011;57790;51.356;-2.906;2023-06-22T04:48:16;6.60;;;2.47;;
70369;SDS011;57790;51.356;-2.906;2023-06-22T04:51:16;6.87;;;2.57;;
70369;SDS011;57790;51.356;-2.906;2023-06-22T04:54:21;7.25;;;2.72;;
70369;SDS011;57790;51.356;-2.906;2023-06-22T04:57:22;8.10;;;2.90;;
70369;SDS011;57790;51.356;-2.906;2023-06-22T05:00:32;7.30;;;2.80;;
70369;SDS011;57790;51.356;-2.906;2023-06-22T05:03:36;7.18;;;2.70;;
70369;SDS011;57790;51.356;-2.906;2023-06-22T05:06:36;6.72;;;2.67;;
70369;SDS011;57790;51.356;-2.906;2023-06-22T05:09:37;7.60;;;2.70;;
70369;SDS011;57790;51.356;-2.906;2023-06-22T05:12:38;7.40;;;2.57;;
70369;SDS011;57790;51.356;-2.906;2023-06-22T05:15:39;8.27;;;3.10;;
70369;SDS011;57790;51.356;-2.906;2023-06-22T05:18:39;7.38;;;2.90;;
70369;SDS011;57790;51.356;-2.906;2023-06-22T05:21:41;8.30;;;3.00;;
70369;SDS011;57790;51.356;-2.906;2023-06-22T05:24:42;8.68;;;3.10;;
70369;SDS011;57790;51.356;-2.906;2023-06-22T05:27:43;7.67;;;2.90;;
70369;SDS011;57790;51.356;-2.906;2023-06-22T05:30:44;7.63;;;3.15;;
70369;SDS011;57790;51.356;-2.906;2023-06-22T05:33:44;8.63;;;2.90;;
70369;SDS011;57790;51.356;-2.906;2023-06-22T05:36:46;8.13;;;3.00;;
70369;SDS011;57790;51.356;-2.906;2023-06-22T05:39:46;7.60;;;2.70;;
70369;SDS011;57790;51.356;-2.906;2023-06-22T05:42:47;9.77;;;3.60;;
70369;SDS011;57790;51.356;-2.906;2023-06-22T05:45:47;8.15;;;3.15;;
70369;SDS011;57790;51.356;-2.906;2023-06-22T05:48:48;8.67;;;3.47;;
70369;SDS011;57790;51.356;-2.906;2023-06-22T05:51:48;8.30;;;3.17;;
70369;SDS011;57790;51.356;-2.906;2023-06-22T05:54:48;9.77;;;3.47;;
70369;SDS011;57790;51.356;-2.906;2023-06-22T05:57:49;8.53;;;3.23;;
70369;SDS011;57790;51.356;-2.906;2023-06-22T06:00:49;8.45;;;3.13;;
70369;SDS011;57790;51.356;-2.906;2023-06-22T06:03:50;8.53;;;3.43;;
70369;SDS011;57790;51.356;-2.906;2023-06-22T06:06:52;9.23;;;3.25;;
70369;SDS011;57790;51.356;-2.906;2023-06-22T06:09:53;7.70;;;2.90;;
70369;SDS011;57790;51.356;-2.906;2023-06-22T06:12:53;8.40;;;3.27;;
70369;SDS011;57790;51.356;-2.906;2023-06-22T06:15:53;8.07;;;3.13;;
70369;SDS011;57790;51.356;-2.906;2023-06-22T06:18:57;8.07;;;3.17;;
70369;SDS011;57790;51.356;-2.906;2023-06-22T06:21:58;8.43;;;3.38;;
70369;SDS011;57790;51.356;-2.906;2023-06-22T06:24:58;7.53;;;2.87;;
70369;SDS011;57790;51.356;-2.906;2023-06-22T06:27:59;9.77;;;3.13;;
70369;SDS011;57790;51.356;-2.906;2023-06-22T06:30:59;7.60;;;3.30;;
70369;SDS011;57790;51.356;-2.906;2023-06-22T06:33:59;8.40;;;3.27;;
70369;SDS011;57790;51.356;-2.906;2023-06-22T06:37:00;8.43;;;2.83;;
70369;SDS011;57790;51.356;-2.906;2023-06-22T06:40:00;7.87;;;3.10;;
70369;SDS011;57790;51.356;-2.906;2023-06-22T06:43:01;7.57;;;3.10;;
70369;SDS011;57790;51.356;-2.906;2023-06-22T06:46:01;7.67;;;3.30;;
70369;SDS011;57790;51.356;-2.906;2023-06-22T06:49:03;8.60;;;3.30;;
70369;SDS011;57790;51.356;-2.906;2023-06-22T06:52:03;9.57;;;3.27;;
70369;SDS011;57790;51.356;-2.906;2023-06-22T06:55:04;8.15;;;3.20;;
70369;SDS011;57790;51.356;-2.906;2023-06-22T06:58:08;10.05;;;3.75;;
70369;SDS011;57790;51.356;-2.906;2023-06-22T07:01:12;8.30;;;3.08;;
70369;SDS011;57790;51.356;-2.906;2023-06-22T07:04:12;8.47;;;3.50;;
70369;SDS011;57790;51.356;-2.906;2023-06-22T07:07:13;9.70;;;3.30;;
70369;SDS011;57790;51.356;-2.906;2023-06-22T07:10:13;8.07;;;2.95;;
70369;SDS011;57790;51.356;-2.906;2023-06-22T07:13:15;8.50;;;3.10;;
70369;SDS011;57790;51.356;-2.906;2023-06-22T07:16:15;8.98;;;3.55;;
70369;SDS011;57790;51.356;-2.906;2023-06-22T07:19:16;7.53;;;3.03;;
70369;SDS011;57790;51.356;-2.906;2023-06-22T07:22:16;8.37;;;2.97;;
70369;SDS011;57790;51.356;-2.906;2023-06-22T07:25:16;7.37;;;2.70;;
70369;SDS011;57790;51.356;-2.906;2023-06-22T07:28:17;8.63;;;3.13;;
70369;SDS011;57790;51.356;-2.906;2023-06-22T07:31:18;8.53;;;3.13;;
70369;SDS011;57790;51.356;-2.906;2023-06-22T07:34:18;7.70;;;3.10;;
70369;SDS011;57790;51.356;-2.906;2023-06-22T07:37:19;7.10;;;2.90;;
70369;SDS011;57790;51.356;-2.906;2023-06-22T07:40:19;8.07;;;2.83;;
70369;SDS011;57790;51.356;-2.906;2023-06-22T07:43:20;7.70;;;3.00;;
70369;SDS011;57790;51.356;-2.906;2023-06-22T07:46:20;8.05;;;3.08;;
70369;SDS011;57790;51.356;-2.906;2023-06-22T07:49:21;8.03;;;2.70;;
70369;SDS011;57790;51.356;-2.906;2023-06-22T07:52:22;8.20;;;3.50;;
70369;SDS011;57790;51.356;-2.906;2023-06-22T07:55:22;8.80;;;3.13;;
70369;SDS011;57790;51.356;-2.906;2023-06-22T07:58:22;7.93;;;2.90;;
70369;SDS011;57790;51.356;-2.906;2023-06-22T08:01:23;7.60;;;3.00;;
70369;SDS011;57790;51.356;-2.906;2023-06-22T08:04:23;7.03;;;2.87;;
70369;SDS011;57790;51.356;-2.906;2023-06-22T08:07:24;7.17;;;2.90;;
70369;SDS011;57790;51.356;-2.906;2023-06-22T08:10:24;6.78;;;2.67;;
70369;SDS011;57790;51.356;-2.906;2023-06-22T08:13:25;7.13;;;2.93;;
70369;SDS011;57790;51.356;-2.906;2023-06-22T08:16:28;7.20;;;3.00;;
70369;SDS011;57790;51.356;-2.906;2023-06-22T08:19:28;7.27;;;2.50;;
70369;SDS011;57790;51.356;-2.906;2023-06-22T08:22:28;8.97;;;2.87;;
70369;SDS011;57790;51.356;-2.906;2023-06-22T08:25:30;7.32;;;2.50;;
70369;SDS011;57790;51.356;-2.906;2023-06-22T08:28:30;6.83;;;2.60;;
70369;SDS011;57790;51.356;-2.906;2023-06-22T08:31:31;8.07;;;2.67;;
70369;SDS011;57790;51.356;-2.906;2023-06-22T08:34:34;7.63;;;2.70;;
70369;SDS011;57790;51.356;-2.906;2023-06-22T08:37:34;7.90;;;2.80;;
70369;SDS011;57790;51.356;-2.906;2023-06-22T08:40:35;8.65;;;2.97;;
70369;SDS011;57790;51.356;-2.906;2023-06-22T08:43:35;7.60;;;2.60;;
70369;SDS011;57790;51.356;-2.906;2023-06-22T08:46:36;7.43;;;2.60;;
70369;SDS011;57790;51.356;-2.906;2023-06-22T08:49:38;7.13;;;2.70;;
70369;SDS011;57790;51.356;-2.906;2023-06-22T08:52:39;7.17;;;2.50;;
70369;SDS011;57790;51.356;-2.906;2023-06-22T08:55:43;7.20;;;2.83;;
70369;SDS011;57790;51.356;-2.906;2023-06-22T08:58:43;6.93;;;2.70;;
70369;SDS011;57790;51.356;-2.906;2023-06-22T09:01:44;7.45;;;2.80;;
70369;SDS011;57790;51.356;-2.906;2023-06-22T09:04:48;7.90;;;2.63;;
70369;SDS011;57790;51.356;-2.906;2023-06-22T09:07:58;6.60;;;2.33;;
70369;SDS011;57790;51.356;-2.906;2023-06-22T09:10:58;6.90;;;2.58;;
70369;SDS011;57790;51.356;-2.906;2023-06-22T09:13:59;6.77;;;2.70;;
70369;SDS011;57790;51.356;-2.906;2023-06-22T09:16:59;6.70;;;2.60;;
70369;SDS011;57790;51.356;-2.906;2023-06-22T09:20:00;6.95;;;2.58;;
70369;SDS011;57790;51.356;-2.906;2023-06-22T09:23:00;7.00;;;2.57;;
70369;SDS011;57790;51.356;-2.906;2023-06-22T09:26:01;7.70;;;2.50;;
70369;SDS011;57790;51.356;-2.906;2023-06-22T09:29:04;6.57;;;2.40;;
70369;SDS011;57790;51.356;-2.906;2023-06-22T09:32:06;6.13;;;2.30;;
70369;SDS011;57790;51.356;-2.906;2023-06-22T09:35:06;6.82;;;2.38;;
70369;SDS011;57790;51.356;-2.906;2023-06-22T09:38:08;6.95;;;2.45;;
70369;SDS011;57790;51.356;-2.906;2023-06-22T09:41:08;7.03;;;2.67;;
70369;SDS011;57790;51.356;-2.906;2023-06-22T09:44:09;9.53;;;2.77;;
70369;SDS011;57790;51.356;-2.906;2023-06-22T09:47:09;6.07;;;2.50;;
70369;SDS011;57790;51.356;-2.906;2023-06-22T09:50:10;6.80;;;2.33;;
70369;SDS011;57790;51.356;-2.906;2023-06-22T09:53:10;7.10;;;2.20;;
70369;SDS011;57790;51.356;-2.906;2023-06-22T09:56:10;6.50;;;2.60;;
70369;SDS011;57790;51.356;-2.906;2023-06-22T09:59:14;7.68;;;2.30;;
70369;SDS011;57790;51.356;-2.906;2023-06-22T10:02:15;8.43;;;2.70;;
70369;SDS011;57790;51.356;-2.906;2023-06-22T10:05:15;7.00;;;2.27;;
70369;SDS011;57790;51.356;-2.906;2023-06-22T10:08:16;6.22;;;2.40;;
70369;SDS011;57790;51.356;-2.906;2023-06-22T10:11:16;7.30;;;2.57;;
70369;SDS011;57790;51.356;-2.906;2023-06-22T10:14:17;7.03;;;2.43;;
70369;SDS011;57790;51.356;-2.906;2023-06-22T10:17:17;5.60;;;2.00;;
70369;SDS011;57790;51.356;-2.906;2023-06-22T10:20:18;6.93;;;2.63;;
70369;SDS011;57790;51.356;-2.906;2023-06-22T10:23:19;6.40;;;2.33;;
70369;SDS011;57790;51.356;-2.906;2023-06-22T10:26:20;5.80;;;2.10;;
70369;SDS011;57790;51.356;-2.906;2023-06-22T10:29:20;6.47;;;2.50;;
70369;SDS011;57790;51.356;-2.906;2023-06-22T10:32:20;6.50;;;2.53;;
70369;SDS011;57790;51.356;-2.906;2023-06-22T10:35:21;5.67;;;2.00;;
70369;SDS011;57790;51.356;-2.906;2023-06-22T10:38:21;7.33;;;2.10;;
70369;SDS011;57790;51.356;-2.906;2023-06-22T10:41:22;6.57;;;2.10;;
70369;SDS011;57790;51.356;-2.906;2023-06-22T10:44:22;5.67;;;2.27;;
70369;SDS011;57790;51.356;-2.906;2023-06-22T10:47:22;6.63;;;2.30;;
70369;SDS011;57790;51.356;-2.906;2023-06-22T10:50:23;6.43;;;2.00;;
70369;SDS011;57790;51.356;-2.906;2023-06-22T10:53:25;5.80;;;2.20;;
70369;SDS011;57790;51.356;-2.906;2023-06-22T10:56:25;5.87;;;2.20;;
70369;SDS011;57790;51.356;-2.906;2023-06-22T10:59:26;8.17;;;2.47;;
70369;SDS011;57790;51.356;-2.906;2023-06-22T11:02:27;6.05;;;2.25;;
70369;SDS011;57790;51.356;-2.906;2023-06-22T11:05:28;6.15;;;2.00;;
70369;SDS011;57790;51.356;-2.906;2023-06-22T11:08:29;6.47;;;2.40;;
70369;SDS011;57790;51.356;-2.906;2023-06-22T11:11:29;5.83;;;2.30;;
70369;SDS011;57790;51.356;-2.906;2023-06-22T11:14:29;5.80;;;2.20;;
70369;SDS011;57790;51.356;-2.906;2023-06-22T11:17:35;6.05;;;2.30;;
70369;SDS011;57790;51.356;-2.906;2023-06-22T11:20:36;5.97;;;2.30;;
70369;SDS011;57790;51.356;-2.906;2023-06-22T11:23:38;6.32;;;2.10;;
70369;SDS011;57790;51.356;-2.906;2023-06-22T11:26:39;6.50;;;2.53;;
70369;SDS011;57790;51.356;-2.906;2023-06-22T11:29:39;7.00;;;2.60;;
70369;SDS011;57790;51.356;-2.906;2023-06-22T11:32:40;6.10;;;2.43;;
70369;SDS011;57790;51.356;-2.906;2023-06-22T11:35:40;6.17;;;2.10;;
70369;SDS011;57790;51.356;-2.906;2023-06-22T11:38:41;5.72;;;2.38;;
70369;SDS011;57790;51.356;-2.906;2023-06-22T11:41:42;7.03;;;2.20;;
70369;SDS011;57790;51.356;-2.906;2023-06-22T11:44:42;5.78;;;1.98;;
70369;SDS011;57790;51.356;-2.906;2023-06-22T11:47:44;5.53;;;2.10;;
70369;SDS011;57790;51.356;-2.906;2023-06-22T11:50:44;8.02;;;2.30;;
70369;SDS011;57790;51.356;-2.906;2023-06-22T11:53:44;6.30;;;2.00;;
70369;SDS011;57790;51.356;-2.906;2023-06-22T11:56:45;6.73;;;2.17;;
70369;SDS011;57790;51.356;-2.906;2023-06-22T11:59:45;6.00;;;2.47;;
70369;SDS011;57790;51.356;-2.906;2023-06-22T12:02:45;5.87;;;2.00;;
70369;SDS011;57790;51.356;-2.906;2023-06-22T12:05:46;6.10;;;1.83;;
70369;SDS011;57790;51.356;-2.906;2023-06-22T12:08:47;6.10;;;1.80;;
70369;SDS011;57790;51.356;-2.906;2023-06-22T12:11:47;5.30;;;1.95;;
70369;SDS011;57790;51.356;-2.906;2023-06-22T12:14:48;6.10;;;1.80;;
70369;SDS011;57790;51.356;-2.906;2023-06-22T12:18:03;6.77;;;2.00;;
70369;SDS011;57790;51.356;-2.906;2023-06-22T12:21:04;4.72;;;1.70;;
70369;SDS011;57790;51.356;-2.906;2023-06-22T12:24:04;4.60;;;1.67;;
70369;SDS011;57790;51.356;-2.906;2023-06-22T12:27:04;5.57;;;1.90;;
70369;SDS011;57790;51.356;-2.906;2023-06-22T12:30:05;6.10;;;1.90;;
70369;SDS011;57790;51.356;-2.906;2023-06-22T12:33:06;5.20;;;2.10;;
70369;SDS011;57790;51.356;-2.906;2023-06-22T12:36:06;4.87;;;1.63;;
70369;SDS011;57790;51.356;-2.906;2023-06-22T12:39:07;5.10;;;1.93;;
70369;SDS011;57790;51.356;-2.906;2023-06-22T12:42:07;5.53;;;1.80;;
70369;SDS011;57790;51.356;-2.906;2023-06-22T12:45:09;5.28;;;1.65;;
70369;SDS011;57790;51.356;-2.906;2023-06-22T12:48:09;5.22;;;1.73;;
70369;SDS011;57790;51.356;-2.906;2023-06-22T12:51:10;4.87;;;1.97;;
70369;SDS011;57790;51.356;-2.906;2023-06-22T12:54:11;4.97;;;1.60;;
70369;SDS011;57790;51.356;-2.906;2023-06-22T12:57:11;5.55;;;1.83;;
70369;SDS011;57790;51.356;-2.906;2023-06-22T13:00:12;4.53;;;1.50;;
70369;SDS011;57790;51.356;-2.906;2023-06-22T13:03:12;4.32;;;1.70;;
70369;SDS011;57790;51.356;-2.906;2023-06-22T13:06:13;5.93;;;1.90;;
70369;SDS011;57790;51.356;-2.906;2023-06-22T13:09:14;4.63;;;1.60;;
70369;SDS011;57790;51.356;-2.906;2023-06-22T13:12:15;5.13;;;1.80;;
70369;SDS011;57790;51.356;-2.906;2023-06-22T13:15:16;4.93;;;1.77;;
70369;SDS011;57790;51.356;-2.906;2023-06-22T13:18:16;4.83;;;1.73;;
70369;SDS011;57790;51.356;-2.906;2023-06-22T13:21:16;4.93;;;1.90;;
70369;SDS011;57790;51.356;-2.906;2023-06-22T13:24:17;6.75;;;2.03;;
70369;SDS011;57790;51.356;-2.906;2023-06-22T13:27:17;4.33;;;1.87;;
70369;SDS011;57790;51.356;-2.906;2023-06-22T13:30:17;5.67;;;1.80;;
70369;SDS011;57790;51.356;-2.906;2023-06-22T13:33:18;5.27;;;1.80;;
70369;SDS011;57790;51.356;-2.906;2023-06-22T13:36:18;5.20;;;1.90;;
70369;SDS011;57790;51.356;-2.906;2023-06-22T13:39:19;5.47;;;1.77;;
70369;SDS011;57790;51.356;-2.906;2023-06-22T13:42:20;5.17;;;1.87;;
70369;SDS011;57790;51.356;-2.906;2023-06-22T13:45:20;5.50;;;1.77;;
70369;SDS011;57790;51.356;-2.906;2023-06-22T13:48:20;5.20;;;1.83;;
70369;SDS011;57790;51.356;-2.906;2023-06-22T13:51:23;7.03;;;1.53;;
70369;SDS011;57790;51.356;-2.906;2023-06-22T13:54:23;5.07;;;1.70;;
70369;SDS011;57790;51.356;-2.906;2023-06-22T13:57:24;6.17;;;1.87;;
70369;SDS011;57790;51.356;-2.906;2023-06-22T14:00:24;5.80;;;1.97;;
70369;SDS011;57790;51.356;-2.906;2023-06-22T14:03:24;6.17;;;2.10;;
70369;SDS011;57790;51.356;-2.906;2023-06-22T14:06:25;5.75;;;1.90;;
70369;SDS011;57790;51.356;-2.906;2023-06-22T14:09:25;5.10;;;1.67;;
70369;SDS011;57790;51.356;-2.906;2023-06-22T14:12:26;5.43;;;2.00;;
70369;SDS011;57790;51.356;-2.906;2023-06-22T14:15:26;5.80;;;1.83;;
70369;SDS011;57790;51.356;-2.906;2023-06-22T14:18:27;5.88;;;1.80;;
70369;SDS011;57790;51.356;-2.906;2023-06-22T14:21:27;5.63;;;1.93;;
70369;SDS011;57790;51.356;-2.906;2023-06-22T14:24:27;6.63;;;2.10;;
70369;SDS011;57790;51.356;-2.906;2023-06-22T14:27:28;5.43;;;1.90;;
70369;SDS011;57790;51.356;-2.906;2023-06-22T14:30:28;5.63;;;2.20;;
70369;SDS011;57790;51.356;-2.906;2023-06-22T14:33:29;7.57;;;2.13;;
70369;SDS011;57790;51.356;-2.906;2023-06-22T14:36:29;4.83;;;1.60;;
70369;SDS011;57790;51.356;-2.906;2023-06-22T14:39:29;6.43;;;2.03;;
70369;SDS011;57790;51.356;-2.906;2023-06-22T14:42:30;5.93;;;2.37;;
70369;SDS011;57790;51.356;-2.906;2023-06-22T14:45:30;4.23;;;1.70;;
70369;SDS011;57790;51.356;-2.906;2023-06-22T14:48:31;6.07;;;1.80;;
70369;SDS011;57790;51.356;-2.906;2023-06-22T14:51:31;6.40;;;2.08;;
70369;SDS011;57790;51.356;-2.906;2023-06-22T14:54:31;5.23;;;1.60;;
70369;SDS011;57790;51.356;-2.906;2023-06-22T14:57:32;6.27;;;1.90;;
70369;SDS011;57790;51.356;-2.906;2023-06-22T15:00:32;5.37;;;1.60;;
70369;SDS011;57790;51.356;-2.906;2023-06-22T15:03:33;5.63;;;1.70;;
70369;SDS011;57790;51.356;-2.906;2023-06-22T15:06:35;5.72;;;2.00;;
70369;SDS011;57790;51.356;-2.906;2023-06-22T15:09:36;4.50;;;1.50;;
70369;SDS011;57790;51.356;-2.906;2023-06-22T15:12:39;4.97;;;1.80;;
70369;SDS011;57790;51.356;-2.906;2023-06-22T15:15:39;5.13;;;2.03;;
70369;SDS011;57790;51.356;-2.906;2023-06-22T15:18:39;4.83;;;1.80;;
70369;SDS011;57790;51.356;-2.906;2023-06-22T15:21:41;5.35;;;1.75;;
70369;SDS011;57790;51.356;-2.906;2023-06-22T15:24:41;5.60;;;1.80;;
70369;SDS011;57790;51.356;-2.906;2023-06-22T15:27:41;6.83;;;1.73;;
70369;SDS011;57790;51.356;-2.906;2023-06-22T15:30:42;4.73;;;1.70;;
70369;SDS011;57790;51.356;-2.906;2023-06-22T15:33:43;4.05;;;1.50;;
70369;SDS011;57790;51.356;-2.906;2023-06-22T15:36:43;5.50;;;2.00;;
70369;SDS011;57790;51.356;-2.906;2023-06-22T15:39:44;4.77;;;1.60;;
70369;SDS011;57790;51.356;-2.906;2023-06-22T15:42:44;5.37;;;1.57;;
70369;SDS011;57790;51.356;-2.906;2023-06-22T15:45:48;5.40;;;1.70;;
70369;SDS011;57790;51.356;-2.906;2023-06-22T15:48:49;5.50;;;1.73;;
70369;SDS011;57790;51.356;-2.906;2023-06-22T15:51:50;5.43;;;1.80;;
70369;SDS011;57790;51.356;-2.906;2023-06-22T15:54:50;6.23;;;1.90;;
70369;SDS011;57790;51.356;-2.906;2023-06-22T15:57:51;5.05;;;1.85;;
70369;SDS011;57790;51.356;-2.906;2023-06-22T16:00:51;4.30;;;1.67;;
70369;SDS011;57790;51.356;-2.906;2023-06-22T16:03:51;4.77;;;1.80;;
70369;SDS011;57790;51.356;-2.906;2023-06-22T16:06:52;5.50;;;1.80;;
70369;SDS011;57790;51.356;-2.906;2023-06-22T16:09:52;6.67;;;2.33;;
70369;SDS011;57790;51.356;-2.906;2023-06-22T16:12:53;5.97;;;1.80;;
70369;SDS011;57790;51.356;-2.906;2023-06-22T16:15:53;5.43;;;2.10;;
70369;SDS011;57790;51.356;-2.906;2023-06-22T16:18:54;5.03;;;1.87;;
70369;SDS011;57790;51.356;-2.906;2023-06-22T16:21:54;6.13;;;1.93;;
70369;SDS011;57790;51.356;-2.906;2023-06-22T16:24:55;6.45;;;2.30;;
70369;SDS011;57790;51.356;-2.906;2023-06-22T16:27:55;4.77;;;1.70;;
70369;SDS011;57790;51.356;-2.906;2023-06-22T16:30:56;6.30;;;2.13;;
70369;SDS011;57790;51.356;-2.906;2023-06-22T16:33:56;5.20;;;1.73;;
70369;SDS011;57790;51.356;-2.906;2023-06-22T16:36:57;5.53;;;2.30;;
70369;SDS011;57790;51.356;-2.906;2023-06-22T16:39:57;5.53;;;2.27;;
70369;SDS011;57790;51.356;-2.906;2023-06-22T16:42:58;6.93;;;2.00;;
70369;SDS011;57790;51.356;-2.906;2023-06-22T16:45:58;6.50;;;1.92;;
70369;SDS011;57790;51.356;-2.906;2023-06-22T16:48:59;6.27;;;2.27;;
70369;SDS011;57790;51.356;-2.906;2023-06-22T16:51:59;5.05;;;2.00;;
70369;SDS011;57790;51.356;-2.906;2023-06-22T16:55:00;5.27;;;1.93;;
70369;SDS011;57790;51.356;-2.906;2023-06-22T16:58:01;6.63;;;2.13;;
70369;SDS011;57790;51.356;-2.906;2023-06-22T17:01:04;9.95;;;2.10;;
70369;SDS011;57790;51.356;-2.906;2023-06-22T17:04:09;6.20;;;2.10;;
70369;SDS011;57790;51.356;-2.906;2023-06-22T17:07:14;7.18;;;1.98;;
70369;SDS011;57790;51.356;-2.906;2023-06-22T17:10:16;7.05;;;1.85;;
70369;SDS011;57790;51.356;-2.906;2023-06-22T17:13:17;5.87;;;2.03;;
70369;SDS011;57790;51.356;-2.906;2023-06-22T17:16:17;6.22;;;2.35;;
70369;SDS011;57790;51.356;-2.906;2023-06-22T17:19:19;6.10;;;2.10;;
70369;SDS011;57790;51.356;-2.906;2023-06-22T17:22:20;7.87;;;2.23;;
70369;SDS011;57790;51.356;-2.906;2023-06-22T17:25:21;6.43;;;2.13;;
70369;SDS011;57790;51.356;-2.906;2023-06-22T17:28:23;6.10;;;2.00;;
70369;SDS011;57790;51.356;-2.906;2023-06-22T17:31:36;7.10;;;2.20;;
70369;SDS011;57790;51.356;-2.906;2023-06-22T17:35:03;5.72;;;2.20;;
70369;SDS011;57790;51.356;-2.906;2023-06-22T17:38:04;6.05;;;2.20;;
70369;SDS011;57790;51.356;-2.906;2023-06-22T17:41:05;5.65;;;2.35;;
70369;SDS011;57790;51.356;-2.906;2023-06-22T17:44:06;6.57;;;2.47;;
70369;SDS011;57790;51.356;-2.906;2023-06-22T17:47:07;6.63;;;2.25;;
70369;SDS011;57790;51.356;-2.906;2023-06-22T17:50:08;7.63;;;2.30;;
70369;SDS011;57790;51.356;-2.906;2023-06-22T17:53:09;6.55;;;2.40;;
70369;SDS011;57790;51.356;-2.906;2023-06-22T17:56:12;6.88;;;2.47;;